createdAt,value
2022-10-09T00:01:38.530Z,6.03
2022-10-09T00:04:06.972Z,4.93
2022-10-09T00:06:35.805Z,5.20
2022-10-09T00:09:04.527Z,5.03
2022-10-09T00:11:34.564Z,5.30
2022-10-09T00:14:04.608Z,4.77
2022-10-09T00:16:33.419Z,4.83
2022-10-09T00:19:02.199Z,4.57
2022-10-09T00:21:33.078Z,4.90
2022-10-09T00:24:03.338Z,4.07
2022-10-09T00:26:32.831Z,4.93
2022-10-09T00:29:01.396Z,3.93
2022-10-09T00:31:30.113Z,4.17
2022-10-09T00:33:58.606Z,4.80
2022-10-09T00:36:27.808Z,5.00
2022-10-09T00:38:56.654Z,5.10
2022-10-09T00:41:29.526Z,4.17
2022-10-09T00:44:04.087Z,4.40
2022-10-09T00:46:41.920Z,4.57
2022-10-09T00:49:17.769Z,4.37
2022-10-09T00:51:49.522Z,5.33
2022-10-09T00:54:23.303Z,4.27
2022-10-09T00:56:52.250Z,5.83
2022-10-09T00:59:21.673Z,5.20
2022-10-09T01:01:50.258Z,4.83
2022-10-09T01:04:19.981Z,5.83
2022-10-09T01:07:03.993Z,5.63
2022-10-09T01:09:40.833Z,5.25
2022-10-09T01:12:20.288Z,5.47
2022-10-09T01:14:57.324Z,6.17
2022-10-09T01:17:36.342Z,5.30
2022-10-09T01:20:22.670Z,6.00
2022-10-09T01:23:10.333Z,6.77
2022-10-09T01:25:51.966Z,6.03
2022-10-09T01:28:23.616Z,5.23
2022-10-09T01:30:52.857Z,5.57
2022-10-09T01:33:25.546Z,5.63
2022-10-09T01:35:54.250Z,5.80
2022-10-09T01:38:24.264Z,6.30
2022-10-09T01:40:53.740Z,6.27
2022-10-09T01:43:22.131Z,5.67
2022-10-09T01:45:50.634Z,5.83
2022-10-09T01:48:24.732Z,6.77
2022-10-09T01:51:00.788Z,7.00
2022-10-09T01:53:31.314Z,6.50
2022-10-09T01:56:07.825Z,5.57
2022-10-09T01:58:41.540Z,5.97
2022-10-09T02:01:16.812Z,5.95
2022-10-09T02:03:49.638Z,5.03
2022-10-09T02:06:21.716Z,6.20
2022-10-09T02:08:53.340Z,5.80
2022-10-09T02:11:23.697Z,5.67
2022-10-09T02:13:53.478Z,5.67
2022-10-09T02:16:28.212Z,6.37
2022-10-09T02:19:01.727Z,6.20
2022-10-09T02:21:39.056Z,6.55
2022-10-09T02:24:10.410Z,7.00
2022-10-09T02:26:39.416Z,7.20
2022-10-09T02:29:08.244Z,6.57
2022-10-09T02:31:39.933Z,6.60
2022-10-09T02:34:11.129Z,6.87
2022-10-09T02:36:40.643Z,6.47
2022-10-09T02:39:09.958Z,6.93
2022-10-09T02:41:38.753Z,6.73
2022-10-09T02:44:07.717Z,6.40
2022-10-09T02:46:37.842Z,7.07
2022-10-09T02:49:06.939Z,8.33
2022-10-09T02:51:35.627Z,7.23
2022-10-09T02:54:04.962Z,8.17
2022-10-09T02:56:37.969Z,7.83
2022-10-09T02:59:07.848Z,7.73
2022-10-09T03:01:36.862Z,8.65
2022-10-09T03:04:05.881Z,8.60
2022-10-09T03:06:34.469Z,8.23
2022-10-09T03:09:03.165Z,9.27
2022-10-09T03:11:31.518Z,9.07
2022-10-09T03:14:00.465Z,8.30
2022-10-09T03:16:29.146Z,8.47
2022-10-09T03:18:58.540Z,8.60
2022-10-09T03:21:28.217Z,9.30
2022-10-09T03:23:56.822Z,8.53
2022-10-09T03:26:27.360Z,8.50
2022-10-09T03:28:56.324Z,9.43
2022-10-09T03:31:51.205Z,9.27
2022-10-09T03:34:15.960Z,9.27
2022-10-09T03:36:44.425Z,7.87
2022-10-09T03:39:13.339Z,9.23
2022-10-09T03:41:42.143Z,9.07
2022-10-09T03:44:10.494Z,8.63
2022-10-09T03:46:48.270Z,10.03
2022-10-09T03:49:19.186Z,9.30
2022-10-09T03:51:48.233Z,8.87
2022-10-09T03:54:19.257Z,9.43
2022-10-09T03:56:47.923Z,8.57
2022-10-09T03:59:16.725Z,9.10
2022-10-09T04:01:45.312Z,9.43
2022-10-09T04:04:14.770Z,9.57
2022-10-09T04:06:44.179Z,10.07
2022-10-09T04:09:12.909Z,10.07
2022-10-09T04:11:41.347Z,9.83
2022-10-09T04:14:10.241Z,9.13
2022-10-09T04:16:40.722Z,10.10
2022-10-09T04:19:17.804Z,8.47
2022-10-09T04:21:49.207Z,8.83
2022-10-09T04:24:21.167Z,9.60
2022-10-09T04:26:49.803Z,9.43
2022-10-09T04:29:19.006Z,10.55
2022-10-09T04:31:47.490Z,9.00
2022-10-09T04:34:16.831Z,10.30
2022-10-09T04:36:45.249Z,9.30
2022-10-09T04:39:13.892Z,7.27
2022-10-09T04:41:42.497Z,9.50
2022-10-09T04:44:10.904Z,8.73
2022-10-09T04:46:39.376Z,9.07
2022-10-09T04:49:10.855Z,8.10
2022-10-09T04:51:39.444Z,7.90
2022-10-09T04:54:09.097Z,8.47
2022-10-09T04:56:37.745Z,7.97
2022-10-09T04:59:06.555Z,7.83
2022-10-09T05:01:39.379Z,7.23
2022-10-09T05:04:08.898Z,8.13
2022-10-09T05:06:37.520Z,8.03
2022-10-09T05:09:06.018Z,8.63
2022-10-09T05:11:37.148Z,7.80
2022-10-09T05:14:12.763Z,7.00
2022-10-09T05:17:08.493Z,8.88
2022-10-09T05:19:30.666Z,7.67
2022-10-09T05:22:00.221Z,7.07
2022-10-09T05:24:29.702Z,7.10
2022-10-09T05:26:59.117Z,7.43
2022-10-09T05:29:27.869Z,7.80
2022-10-09T05:31:56.837Z,7.63
2022-10-09T05:34:25.680Z,8.10
2022-10-09T05:36:54.281Z,8.47
2022-10-09T05:39:23.116Z,7.50
2022-10-09T05:41:51.692Z,8.57
2022-10-09T05:44:20.420Z,11.07
2022-10-09T05:46:49.295Z,9.87
2022-10-09T05:49:19.515Z,9.20
2022-10-09T05:51:49.515Z,32.83
2022-10-09T05:54:19.113Z,15.67
2022-10-09T05:56:47.848Z,15.37
2022-10-09T05:59:19.168Z,11.53
2022-10-09T06:01:50.206Z,12.87
2022-10-09T06:04:21.977Z,10.60
2022-10-09T06:06:51.441Z,8.50
2022-10-09T06:09:22.880Z,6.70
2022-10-09T06:11:52.809Z,6.73
2022-10-09T06:14:22.594Z,7.30
2022-10-09T06:16:51.702Z,7.97
2022-10-09T06:19:20.852Z,7.00
2022-10-09T06:21:50.087Z,6.70
2022-10-09T06:24:25.778Z,6.27
2022-10-09T06:26:57.465Z,7.13
2022-10-09T06:29:26.592Z,6.77
2022-10-09T06:31:55.253Z,6.63
2022-10-09T06:34:24.887Z,6.37
2022-10-09T06:36:53.515Z,6.10
2022-10-09T06:39:22.422Z,6.10
2022-10-09T06:41:51.017Z,6.23
2022-10-09T06:44:25.811Z,5.77
2022-10-09T06:46:54.778Z,6.87
2022-10-09T06:49:28.233Z,6.87
2022-10-09T06:51:56.937Z,6.53
2022-10-09T06:54:25.690Z,8.20
2022-10-09T06:56:55.335Z,8.13
2022-10-09T06:59:24.147Z,8.30
2022-10-09T07:01:53.053Z,8.93
2022-10-09T07:04:21.720Z,9.83
2022-10-09T07:06:50.283Z,9.70
2022-10-09T07:09:19.542Z,10.17
2022-10-09T07:11:48.989Z,9.83
2022-10-09T07:14:19.127Z,9.93
2022-10-09T07:16:49.150Z,10.13
2022-10-09T07:19:21.224Z,8.50
2022-10-09T07:21:50.528Z,7.80
2022-10-09T07:24:24.185Z,8.07
2022-10-09T07:26:54.819Z,8.10
2022-10-09T07:29:23.933Z,7.10
2022-10-09T07:31:52.489Z,7.00
2022-10-09T07:34:24.392Z,7.20
2022-10-09T07:36:52.913Z,7.43
2022-10-09T07:39:21.981Z,6.83
2022-10-09T07:41:52.211Z,7.17
2022-10-09T07:44:21.152Z,8.17
2022-10-09T07:46:51.705Z,6.95
2022-10-09T07:49:21.596Z,7.17
2022-10-09T07:51:50.105Z,6.70
2022-10-09T07:54:21.479Z,6.07
2022-10-09T07:56:49.949Z,6.33
2022-10-09T07:59:19.647Z,6.30
2022-10-09T08:01:48.240Z,7.10
2022-10-09T08:04:16.932Z,6.00
2022-10-09T08:06:46.184Z,6.23
2022-10-09T08:09:14.766Z,6.37
2022-10-09T08:11:44.072Z,6.00
2022-10-09T08:14:19.002Z,5.83
2022-10-09T08:16:50.353Z,6.50
2022-10-09T08:19:21.709Z,5.63
2022-10-09T08:21:50.267Z,5.43
2022-10-09T08:24:19.833Z,5.93
2022-10-09T08:26:48.377Z,6.00
2022-10-09T08:29:19.976Z,5.60
2022-10-09T08:31:48.644Z,5.43
2022-10-09T08:34:21.112Z,5.30
2022-10-09T08:36:50.163Z,5.43
2022-10-09T08:39:21.403Z,4.60
2022-10-09T08:41:54.246Z,5.93
2022-10-09T08:44:26.575Z,8.23
2022-10-09T08:47:03.389Z,17.97
2022-10-09T08:52:37.946Z,15.00
2022-10-09T08:55:16.693Z,17.87
2022-10-09T08:57:56.713Z,13.63
2022-10-09T09:00:31.119Z,9.80
2022-10-09T09:03:33.801Z,8.30
2022-10-09T09:06:09.811Z,6.30
2022-10-09T09:08:48.691Z,7.07
2022-10-09T09:11:28.372Z,7.90
2022-10-09T09:14:12.194Z,6.00
2022-10-09T09:16:48.135Z,10.68
2022-10-09T09:19:36.230Z,9.80
2022-10-09T09:22:09.520Z,11.97
2022-10-09T09:24:45.075Z,17.77
2022-10-09T09:27:16.752Z,11.80
2022-10-09T09:29:50.389Z,9.37
2022-10-09T09:32:23.159Z,8.45
2022-10-09T09:34:58.952Z,9.83
2022-10-09T09:37:28.645Z,10.37
2022-10-09T09:42:48.720Z,10.27
2022-10-09T09:45:22.248Z,9.10
2022-10-09T09:47:55.921Z,11.80
2022-10-09T09:50:48.645Z,12.78
2022-10-09T09:53:30.135Z,12.23
2022-10-09T09:55:59.043Z,10.07
2022-10-09T09:58:35.175Z,8.00
2022-10-09T10:01:06.109Z,6.50
2022-10-09T10:03:36.305Z,7.57
2022-10-09T10:06:17.679Z,7.80
2022-10-09T10:08:57.103Z,6.40
2022-10-09T10:11:25.919Z,6.70
2022-10-09T10:13:54.576Z,6.37
2022-10-09T10:16:25.801Z,9.87
2022-10-09T10:18:56.971Z,8.00
2022-10-09T10:21:25.619Z,6.83
2022-10-09T10:26:40.943Z,5.53
2022-10-09T10:29:15.431Z,5.20
2022-10-09T10:31:51.467Z,5.83
2022-10-09T10:34:26.216Z,5.57
2022-10-09T10:37:02.642Z,5.70
2022-10-09T10:39:39.953Z,5.87
2022-10-09T10:42:21.203Z,5.50
2022-10-09T10:45:00.138Z,6.37
2022-10-09T10:47:34.738Z,5.83
2022-10-09T10:50:03.856Z,6.57
2022-10-09T10:52:43.500Z,6.20
2022-10-09T10:55:28.453Z,6.93
2022-10-09T10:58:13.911Z,5.80
2022-10-09T11:00:50.573Z,5.60
2022-10-09T11:03:38.571Z,5.30
2022-10-09T11:06:12.350Z,6.63
2022-10-09T11:08:54.094Z,6.57
2022-10-09T11:11:35.951Z,7.77
2022-10-09T11:14:20.307Z,7.50
2022-10-09T11:17:01.055Z,6.80
2022-10-09T11:19:56.891Z,7.37
2022-10-09T11:22:40.160Z,6.03
2022-10-09T11:25:21.606Z,6.73
2022-10-09T11:27:53.485Z,6.00
2022-10-09T11:30:24.713Z,6.37
2022-10-09T11:33:02.786Z,6.17
2022-10-09T11:35:37.361Z,6.77
2022-10-09T11:38:24.387Z,7.10
2022-10-09T11:40:53.930Z,5.90
2022-10-09T11:43:40.779Z,5.37
2022-10-09T11:46:15.608Z,5.25
2022-10-09T11:48:54.621Z,4.90
2022-10-09T11:51:33.563Z,5.00
2022-10-09T11:54:03.946Z,4.77
2022-10-09T11:56:33.332Z,4.25
2022-10-09T11:59:04.851Z,4.20
2022-10-09T12:01:37.821Z,5.20
2022-10-09T12:04:09.918Z,3.73
2022-10-09T12:06:49.339Z,5.87
2022-10-09T12:09:30.263Z,4.53
2022-10-09T12:12:03.103Z,5.00
2022-10-09T12:14:34.405Z,5.40
2022-10-09T12:17:16.399Z,4.77
2022-10-09T12:20:00.769Z,5.43
2022-10-09T12:22:33.979Z,4.13
2022-10-09T12:25:07.717Z,4.30
2022-10-09T12:27:42.693Z,4.40
2022-10-09T12:30:23.487Z,4.20
2022-10-09T12:32:57.008Z,3.67
2022-10-09T12:35:32.391Z,4.00
2022-10-09T12:38:01.221Z,4.53
2022-10-09T12:40:33.183Z,4.20
2022-10-09T12:43:07.958Z,3.80
2022-10-09T12:45:43.875Z,4.37
2022-10-09T12:48:18.124Z,4.30
2022-10-09T12:53:18.577Z,3.87
2022-10-09T12:55:49.040Z,3.23
2022-10-09T12:58:22.093Z,3.30
2022-10-09T13:00:55.183Z,4.42
2022-10-09T13:03:34.496Z,4.37
2022-10-09T13:06:05.039Z,3.87
2022-10-09T13:08:39.877Z,5.40
2022-10-09T13:11:13.400Z,5.00
2022-10-09T13:13:42.639Z,4.35
2022-10-09T13:16:12.009Z,4.30
2022-10-09T13:18:41.275Z,3.97
2022-10-09T13:21:27.318Z,3.77
2022-10-09T13:24:08.051Z,3.67
2022-10-09T13:26:38.122Z,3.60
2022-10-09T13:29:09.398Z,3.63
2022-10-09T13:31:43.000Z,4.00
2022-10-09T13:34:14.888Z,4.33
2022-10-09T13:36:44.049Z,3.90
2022-10-09T13:39:17.338Z,3.83
2022-10-09T13:41:48.984Z,3.52
2022-10-09T13:44:18.096Z,3.50
2022-10-09T13:46:51.272Z,4.17
2022-10-09T13:51:55.525Z,3.60
2022-10-09T13:54:25.304Z,4.10
2022-10-09T13:56:55.685Z,3.93
2022-10-09T13:59:25.019Z,4.83
2022-10-09T14:01:56.380Z,4.07
2022-10-09T14:04:26.323Z,4.33
2022-10-09T14:06:55.644Z,4.23
2022-10-09T14:09:25.361Z,3.80
2022-10-09T14:11:59.778Z,4.03
2022-10-09T14:14:29.669Z,3.70
2022-10-09T14:16:59.663Z,3.90
2022-10-09T14:19:29.198Z,3.73
2022-10-09T14:22:00.448Z,3.80
2022-10-09T14:24:29.908Z,3.67
2022-10-09T14:26:58.962Z,3.83
2022-10-09T14:29:27.894Z,3.57
2022-10-09T14:31:56.798Z,5.10
2022-10-09T14:34:28.216Z,4.33
2022-10-09T14:36:57.154Z,4.27
2022-10-09T14:39:26.079Z,3.97
2022-10-09T14:41:55.013Z,5.40
2022-10-09T14:44:27.122Z,6.80
2022-10-09T14:47:00.593Z,7.10
2022-10-09T14:49:29.298Z,6.40
2022-10-09T14:51:58.101Z,6.43
2022-10-09T14:54:26.961Z,5.07
2022-10-09T14:56:56.114Z,5.30
2022-10-09T14:59:25.702Z,5.23
2022-10-09T15:01:54.382Z,5.10
2022-10-09T15:04:24.285Z,4.75
2022-10-09T15:06:53.462Z,5.37
2022-10-09T15:09:25.835Z,4.60
2022-10-09T15:11:55.430Z,4.63
2022-10-09T15:14:25.194Z,5.10
2022-10-09T15:16:53.788Z,5.33
2022-10-09T15:19:23.781Z,5.57
2022-10-09T15:21:52.484Z,4.93
2022-10-09T15:24:22.116Z,5.47
2022-10-09T15:26:51.045Z,5.20
2022-10-09T15:29:20.066Z,5.00
2022-10-09T15:31:50.584Z,6.10
2022-10-09T15:34:20.389Z,5.20
2022-10-09T15:36:51.842Z,5.45
2022-10-09T15:39:23.683Z,6.00
2022-10-09T15:41:52.422Z,5.63
2022-10-09T15:44:23.646Z,5.60
2022-10-09T15:46:52.508Z,6.20
2022-10-09T15:49:22.360Z,5.87
2022-10-09T15:51:52.026Z,5.83
2022-10-09T15:54:20.752Z,4.75
2022-10-09T15:56:50.681Z,5.13
2022-10-09T15:59:29.407Z,5.50
2022-10-09T16:01:58.429Z,6.13
2022-10-09T16:04:28.318Z,5.40
2022-10-09T16:06:57.883Z,5.37
2022-10-09T16:09:31.330Z,5.87
2022-10-09T16:12:03.642Z,5.93
2022-10-09T16:14:32.362Z,12.07
2022-10-09T16:17:01.237Z,34.37
2022-10-09T16:19:30.236Z,34.67
2022-10-09T16:21:58.953Z,35.37
2022-10-09T16:24:28.216Z,27.13
2022-10-09T16:26:57.024Z,18.87
2022-10-09T16:29:26.024Z,16.67
2022-10-09T16:31:56.119Z,19.27
2022-10-09T16:34:26.781Z,18.67
2022-10-09T16:37:04.709Z,18.92
2022-10-09T16:39:33.585Z,14.80
2022-10-09T16:42:07.186Z,12.13
2022-10-09T16:44:35.946Z,11.90
2022-10-09T16:47:05.145Z,12.07
2022-10-09T16:49:33.937Z,12.33
2022-10-09T16:52:03.424Z,12.90
2022-10-09T16:54:32.583Z,12.77
2022-10-09T16:57:01.425Z,12.95
2022-10-09T16:59:30.537Z,13.30
2022-10-09T17:02:03.270Z,13.33
2022-10-09T17:04:34.142Z,13.47
2022-10-09T17:07:05.995Z,14.93
2022-10-09T17:09:36.845Z,16.83
2022-10-09T17:12:10.739Z,17.80
2022-10-09T17:14:40.477Z,16.00
2022-10-09T17:17:12.900Z,20.00
2022-10-09T17:19:43.138Z,27.75
2022-10-09T17:22:22.763Z,26.17
2022-10-09T17:24:51.794Z,26.10
2022-10-09T17:27:20.456Z,28.27
2022-10-09T17:29:51.538Z,41.07
2022-10-09T17:32:20.337Z,34.33
2022-10-09T17:34:50.568Z,30.47
2022-10-09T17:37:19.422Z,31.13
2022-10-09T17:39:51.998Z,29.03
2022-10-09T17:42:21.240Z,29.63
2022-10-09T17:44:53.770Z,29.13
2022-10-09T17:47:24.145Z,26.80
2022-10-09T17:49:54.205Z,25.07
2022-10-09T17:52:23.525Z,23.70
2022-10-09T17:54:53.741Z,23.17
2022-10-09T17:57:24.971Z,25.70
2022-10-09T17:59:56.595Z,23.23
2022-10-09T18:02:25.460Z,21.17
2022-10-09T18:04:57.603Z,20.50
2022-10-09T18:07:26.784Z,21.35
2022-10-09T18:09:58.499Z,22.50
2022-10-09T18:12:32.402Z,32.55
2022-10-09T18:15:02.329Z,44.17
2022-10-09T18:17:33.275Z,32.10
2022-10-09T18:20:02.009Z,26.90
2022-10-09T18:22:31.042Z,31.93
2022-10-09T18:25:02.606Z,34.25
2022-10-09T18:27:31.059Z,33.17
2022-10-09T18:29:59.674Z,39.27
2022-10-09T18:32:28.393Z,41.10
2022-10-09T18:34:59.646Z,44.77
2022-10-09T18:37:28.654Z,40.60
2022-10-09T18:39:57.801Z,35.90
2022-10-09T18:42:27.191Z,32.50
2022-10-09T18:44:57.053Z,29.37
2022-10-09T18:47:28.469Z,26.85
2022-10-09T18:50:01.311Z,24.90
2022-10-09T18:52:30.825Z,23.67
2022-10-09T18:55:05.697Z,22.00
2022-10-09T18:57:35.621Z,22.10
2022-10-09T19:00:05.991Z,20.63
2022-10-09T19:02:37.097Z,18.47
2022-10-09T19:05:07.242Z,19.40
2022-10-09T19:07:36.456Z,18.70
2022-10-09T19:10:07.293Z,19.60
2022-10-09T19:12:35.945Z,19.67
2022-10-09T19:15:12.119Z,18.50
2022-10-09T19:17:41.587Z,19.50
2022-10-09T19:20:10.850Z,16.83
2022-10-09T19:22:39.911Z,17.73
2022-10-09T19:25:09.285Z,18.47
2022-10-09T19:27:38.342Z,19.17
2022-10-09T19:30:10.279Z,21.67
2022-10-09T19:32:38.830Z,20.23
2022-10-09T19:35:08.955Z,22.87
2022-10-09T19:37:37.539Z,23.43
2022-10-09T19:40:08.670Z,23.13
2022-10-09T19:42:37.416Z,23.07
2022-10-09T19:45:10.758Z,22.07
2022-10-09T19:47:42.221Z,20.10
2022-10-09T19:50:14.548Z,20.13
2022-10-09T19:52:46.410Z,18.63
2022-10-09T19:55:15.179Z,19.63
2022-10-09T19:57:43.834Z,19.07
2022-10-09T20:00:14.842Z,18.03
2022-10-09T20:02:43.433Z,18.30
2022-10-09T20:05:14.761Z,17.37
2022-10-09T20:07:43.718Z,18.13
2022-10-09T20:10:15.127Z,17.83
2022-10-09T20:12:43.737Z,15.93
2022-10-09T20:15:15.631Z,17.40
2022-10-09T20:17:44.140Z,17.03
2022-10-09T20:20:12.945Z,16.30
2022-10-09T20:22:41.605Z,15.97
2022-10-09T20:25:10.720Z,17.00
2022-10-09T20:27:39.466Z,17.47
2022-10-09T20:30:09.997Z,17.10
2022-10-09T20:32:38.693Z,16.67
2022-10-09T20:35:08.925Z,15.63
2022-10-09T20:37:37.643Z,16.50
2022-10-09T20:40:07.515Z,16.23
2022-10-09T20:42:36.215Z,16.47
2022-10-09T20:45:06.116Z,16.67
2022-10-09T20:47:35.015Z,19.67
2022-10-09T20:50:04.299Z,19.60
2022-10-09T20:52:33.000Z,18.30
2022-10-09T20:55:02.195Z,18.90
2022-10-09T20:57:34.985Z,20.90
2022-10-09T21:00:05.384Z,20.97
2022-10-09T21:02:35.667Z,20.13
2022-10-09T21:05:07.733Z,21.13
2022-10-09T21:07:36.526Z,21.30
2022-10-09T21:10:06.708Z,22.13
2022-10-09T21:12:35.506Z,20.00
2022-10-09T21:15:05.527Z,21.30
2022-10-09T21:17:34.339Z,22.00
2022-10-09T21:22:50.287Z,23.05
2022-10-09T21:25:21.455Z,22.93
2022-10-09T21:27:51.111Z,21.77
2022-10-09T21:30:19.574Z,22.53
2022-10-09T21:32:51.085Z,22.97
2022-10-09T21:35:24.025Z,21.33
2022-10-09T21:37:52.493Z,21.23
2022-10-09T21:40:23.481Z,22.20
2022-10-09T21:42:52.379Z,21.80
2022-10-09T21:45:21.410Z,20.53
2022-10-09T21:47:55.005Z,21.33
2022-10-09T21:50:26.905Z,22.23
2022-10-09T21:52:55.668Z,19.73
2022-10-09T21:55:25.282Z,21.10
2022-10-09T21:57:54.382Z,18.87
2022-10-09T22:00:24.191Z,20.43
2022-10-09T22:02:53.158Z,20.03
2022-10-09T22:05:26.783Z,20.20
2022-10-09T22:07:55.479Z,20.13
2022-10-09T22:10:26.751Z,21.33
2022-10-09T22:12:55.277Z,20.00
2022-10-09T22:15:24.184Z,19.37
2022-10-09T22:17:52.677Z,19.40
2022-10-09T22:20:21.540Z,19.67
2022-10-09T22:22:51.411Z,19.90
2022-10-09T22:25:20.552Z,19.60
2022-10-09T22:27:49.303Z,19.47
2022-10-09T22:30:18.024Z,19.27
2022-10-09T22:32:46.954Z,20.20
2022-10-09T22:35:15.741Z,19.73
2022-10-09T22:37:45.237Z,18.87
2022-10-09T22:40:14.410Z,18.33
2022-10-09T22:42:42.919Z,18.00
2022-10-09T22:45:12.217Z,17.63
2022-10-09T22:47:40.981Z,18.03
2022-10-09T22:50:10.536Z,19.27
2022-10-09T22:52:39.112Z,18.53
2022-10-09T22:55:09.412Z,19.87
2022-10-09T22:57:38.209Z,17.67
2022-10-09T23:00:08.967Z,18.30
2022-10-09T23:02:39.351Z,18.40
2022-10-09T23:05:11.679Z,17.57
2022-10-09T23:07:43.318Z,18.33
2022-10-09T23:10:12.031Z,19.57
2022-10-09T23:12:42.396Z,18.50
2022-10-09T23:15:11.600Z,18.97
2022-10-09T23:17:41.919Z,18.90
2022-10-09T23:20:11.237Z,18.13
2022-10-09T23:22:39.856Z,19.03
2022-10-09T23:25:09.867Z,19.33
2022-10-09T23:27:38.633Z,18.50
2022-10-09T23:30:09.767Z,17.27
2022-10-09T23:32:38.474Z,18.40
2022-10-09T23:35:08.673Z,16.57
2022-10-09T23:37:37.563Z,18.13
2022-10-09T23:40:08.223Z,17.77
2022-10-09T23:42:38.154Z,17.40
2022-10-09T23:45:10.212Z,18.60
2022-10-09T23:47:41.365Z,17.80
2022-10-09T23:50:10.854Z,17.07
2022-10-09T23:52:43.202Z,17.40
2022-10-09T23:55:14.770Z,18.60
2022-10-09T23:57:44.095Z,18.03
